Purdue University Airport Lafayette US
ICAO: KLAF
IATA: LAF
Category: Medium
Scheduled Services: No

Elevation: 606 ft
TransAlt. 18000 ft.

Airport Communications:
ASOS:127.75
ATIS:127.75
CHICAGO CNTR:123.85
CTAF:119.6
GND:121.9
TERRE HAUTE RDO:122.2
LAFAYETTE TWR:119.6
UNICOM:122.95

KLAF Zoom In..

Runways:

(A) RW 05 length 4225 ft width 100 ft
---- / hdg 51

(B) RW 10 length 6600 ft width 150 ft
ILS 110.30 / hdg 100

(C) RW 23 length 4225 ft width 100 ft
---- / hdg 231

(D) RW 28 length 6600 ft width 150 ft
---- / hdg 280

Location; KLAF
Day. 24 / Time. 01.54 Zulu
* Altimeter: 30.11
* Temperature: -01° c. -30.2°f.
* Wind from: 310° Speed 08 kn.
Dewpoint: -03° c.
Visibility: 10 Statute Miles.
Clouds: Overcast 2300 ft.

KLAF 240154Z 31008KT 10SM OVC023 M01/M03 A3011 RMK AO2 SLP203 T10111028 $


Wind From 310°
Speed 08 kn.

YouTube Music Video
 
jpsmedia.com for Web Design  worldairports.se 2018   terms of use